createdAt,value
2018-12-05T00:03:07.890Z,22.40
2018-12-05T00:08:10.338Z,23.83
2018-12-05T00:13:12.742Z,25.97
2018-12-05T00:18:15.158Z,28.35
2018-12-05T00:23:17.585Z,21.60
2018-12-05T00:28:20.983Z,25.60
2018-12-05T00:33:23.389Z,25.72
2018-12-05T00:38:25.779Z,31.07
2018-12-05T00:43:28.186Z,24.30
2018-12-05T00:48:30.555Z,27.52
2018-12-05T00:53:33.215Z,21.05
2018-12-05T00:58:35.626Z,23.20
2018-12-05T01:03:38.174Z,24.10
2018-12-05T01:08:40.531Z,19.77
2018-12-05T01:13:44.073Z,23.20
2018-12-05T01:18:46.527Z,25.57
2018-12-05T01:23:49.211Z,21.20
2018-12-05T01:28:51.723Z,23.15
2018-12-05T01:33:54.218Z,14.93
2018-12-05T01:38:57.302Z,19.90
2018-12-05T01:43:59.774Z,22.55
2018-12-05T01:49:02.489Z,22.30
2018-12-05T01:54:05.153Z,18.20
2018-12-05T01:59:07.574Z,17.85
2018-12-05T02:04:09.967Z,18.62
2018-12-05T02:09:12.465Z,20.90
2018-12-05T02:14:15.012Z,13.40
2018-12-05T02:19:17.454Z,19.82
2018-12-05T02:24:19.943Z,20.52
2018-12-05T02:29:24.403Z,22.70
2018-12-05T02:34:26.952Z,18.27
2018-12-05T02:39:29.329Z,18.40
2018-12-05T02:44:31.935Z,22.85
2018-12-05T02:49:34.426Z,19.27
2018-12-05T02:54:36.834Z,23.50
2018-12-05T02:59:39.234Z,21.20
2018-12-05T03:04:42.001Z,18.77
2018-12-05T03:09:44.443Z,23.55
2018-12-05T03:14:46.855Z,21.82
2018-12-05T03:19:49.401Z,17.90
2018-12-05T03:24:52.334Z,15.50
2018-12-05T03:29:55.030Z,19.17
2018-12-05T03:34:57.462Z,19.87
2018-12-05T03:40:00.077Z,20.52
2018-12-05T03:45:02.577Z,16.00
2018-12-05T03:50:05.438Z,19.10
2018-12-05T03:55:08.250Z,18.55
2018-12-05T04:00:10.795Z,16.07
2018-12-05T04:05:13.255Z,18.02
2018-12-05T04:10:15.926Z,13.35
2018-12-05T04:15:18.399Z,16.02
2018-12-05T04:20:20.876Z,17.05
2018-12-05T04:25:23.271Z,17.30
2018-12-05T04:30:25.899Z,18.60
2018-12-05T04:35:28.571Z,14.53
2018-12-05T04:40:31.034Z,14.40
2018-12-05T04:45:34.364Z,14.68
2018-12-05T04:50:36.734Z,18.57
2018-12-05T04:55:39.167Z,16.37
2018-12-05T05:00:41.695Z,15.60
2018-12-05T05:05:44.108Z,11.63
2018-12-05T05:10:47.113Z,14.50
2018-12-05T05:15:49.623Z,13.60
2018-12-05T05:20:52.018Z,12.70
2018-12-05T05:25:54.407Z,13.20
2018-12-05T05:31:03.963Z,16.17
2018-12-05T05:36:06.422Z,13.30
2018-12-05T05:41:08.816Z,19.02
2018-12-05T05:46:11.198Z,12.25
2018-12-05T05:51:13.596Z,21.00
2018-12-05T05:56:15.937Z,20.57
2018-12-05T06:01:25.593Z,12.37
2018-12-05T06:06:27.990Z,15.58
2018-12-05T06:11:30.352Z,21.25
2018-12-05T06:16:32.689Z,15.53
2018-12-05T06:21:35.486Z,16.67
2018-12-05T06:26:37.842Z,14.75
2018-12-05T06:31:40.236Z,17.70
2018-12-05T06:36:42.920Z,22.32
2018-12-05T06:41:45.447Z,11.73
2018-12-05T06:46:47.883Z,13.72
2018-12-05T06:51:50.699Z,13.83
2018-12-05T06:56:53.482Z,14.83
2018-12-05T07:01:55.817Z,15.65
2018-12-05T07:06:58.294Z,17.23
2018-12-05T07:12:00.759Z,16.12
2018-12-05T07:17:03.195Z,11.78
2018-12-05T07:22:05.613Z,17.42
2018-12-05T07:27:07.999Z,16.60
2018-12-05T07:32:10.387Z,16.80
2018-12-05T07:37:12.806Z,15.15
2018-12-05T07:42:15.173Z,13.85
2018-12-05T07:47:17.620Z,17.82
2018-12-05T07:52:19.971Z,16.55
2018-12-05T07:57:22.311Z,13.80
2018-12-05T08:02:24.881Z,15.88
2018-12-05T08:07:27.280Z,10.58
2018-12-05T08:12:29.745Z,15.38
2018-12-05T08:17:32.435Z,13.18
2018-12-05T08:22:34.833Z,14.98
2018-12-05T08:27:37.451Z,11.68
2018-12-05T08:32:40.111Z,14.38
2018-12-05T08:37:42.466Z,14.68
2018-12-05T08:42:44.897Z,17.77
2018-12-05T08:47:47.419Z,16.93
2018-12-05T08:52:50.088Z,16.67
2018-12-05T08:57:52.546Z,15.80
2018-12-05T09:02:55.113Z,15.00
2018-12-05T09:07:57.657Z,21.55
2018-12-05T09:13:00.424Z,15.70
2018-12-05T09:18:02.818Z,17.37
2018-12-05T09:23:05.198Z,20.97
2018-12-05T09:28:07.692Z,18.35
2018-12-05T09:33:10.102Z,19.73
2018-12-05T09:38:12.406Z,27.42
2018-12-05T09:43:14.914Z,20.23
2018-12-05T09:48:17.280Z,21.65
2018-12-05T09:53:19.777Z,23.73
2018-12-05T09:58:22.170Z,22.25
2018-12-05T10:03:24.619Z,22.87
2018-12-05T10:08:27.396Z,24.35
2018-12-05T10:13:29.775Z,27.65
2018-12-05T10:18:32.749Z,26.82
2018-12-05T10:23:35.216Z,23.07
2018-12-05T10:28:37.679Z,19.20
2018-12-05T10:33:40.127Z,23.38
2018-12-05T10:38:42.615Z,23.62
2018-12-05T10:43:45.057Z,24.40
2018-12-05T10:48:47.731Z,19.15
2018-12-05T10:53:50.298Z,24.18
2018-12-05T10:58:52.779Z,24.67
2018-12-05T11:03:55.257Z,23.67
2018-12-05T11:09:03.219Z,21.30
2018-12-05T11:14:11.831Z,24.37
2018-12-05T11:19:19.926Z,19.12
2018-12-05T11:24:28.137Z,23.12
2018-12-05T11:29:30.795Z,22.82
2018-12-05T11:34:33.833Z,27.98
2018-12-05T11:39:36.683Z,23.05
2018-12-05T11:44:39.082Z,21.65
2018-12-05T11:49:41.787Z,19.48
2018-12-05T11:54:44.230Z,22.42
2018-12-05T11:59:46.737Z,26.70
2018-12-05T12:04:50.101Z,23.77
2018-12-05T12:09:52.668Z,25.57
2018-12-05T12:14:55.132Z,25.60
2018-12-05T12:19:57.463Z,26.35
2018-12-05T12:24:59.896Z,26.87
2018-12-05T12:30:02.827Z,23.38
2018-12-05T12:35:06.474Z,21.97
2018-12-05T12:40:08.939Z,25.43
2018-12-05T12:45:11.429Z,20.62
2018-12-05T12:50:13.884Z,23.12
2018-12-05T12:55:16.239Z,24.80
2018-12-05T13:00:18.697Z,22.30
2018-12-05T13:05:21.473Z,21.10
2018-12-05T13:10:24.350Z,23.25
2018-12-05T13:15:26.671Z,22.10
2018-12-05T13:20:29.206Z,23.77
2018-12-05T13:25:31.724Z,21.10
2018-12-05T13:30:34.490Z,24.05
2018-12-05T13:35:37.555Z,27.22
2018-12-05T13:40:40.642Z,22.20
2018-12-05T13:45:43.096Z,23.87
2018-12-05T13:50:46.894Z,23.75
2018-12-05T13:55:49.359Z,31.00
2018-12-05T14:00:52.027Z,25.65
2018-12-05T14:05:54.399Z,23.98
2018-12-05T14:10:57.070Z,25.45
2018-12-05T14:21:08.548Z,28.05
2018-12-05T14:26:11.231Z,25.08
2018-12-05T14:31:13.717Z,23.47
2018-12-05T14:36:16.198Z,25.15
2018-12-05T14:41:18.566Z,24.57
2018-12-05T14:46:21.026Z,32.98
2018-12-05T14:51:23.472Z,26.75
2018-12-05T14:56:25.927Z,27.77
2018-12-05T15:01:28.374Z,29.95
2018-12-05T15:06:30.798Z,28.92
2018-12-05T15:11:33.174Z,24.15
2018-12-05T15:16:36.155Z,27.48
2018-12-05T15:21:38.817Z,28.35
2018-12-05T15:26:41.424Z,26.48
2018-12-05T15:31:43.884Z,33.20
2018-12-05T15:36:46.505Z,28.32
2018-12-05T15:41:49.742Z,31.37
2018-12-05T15:46:52.424Z,31.02
2018-12-05T15:51:54.831Z,30.17
2018-12-05T15:56:57.490Z,24.92
2018-12-05T16:02:00.933Z,37.08
2018-12-05T16:07:03.547Z,25.40
2018-12-05T16:12:06.068Z,30.00
2018-12-05T16:17:08.723Z,29.00
2018-12-05T16:22:11.231Z,29.37
2018-12-05T16:27:14.219Z,37.23
2018-12-05T16:32:16.608Z,29.25
2018-12-05T16:37:18.982Z,33.20
2018-12-05T16:42:21.345Z,29.85
2018-12-05T16:47:23.695Z,30.97
2018-12-05T16:52:26.072Z,32.85
2018-12-05T16:57:29.850Z,32.17
2018-12-05T17:02:32.471Z,33.10
2018-12-05T17:07:34.849Z,32.30
2018-12-05T17:12:37.273Z,31.20
2018-12-05T17:17:39.720Z,28.30
2018-12-05T17:22:42.054Z,29.72
2018-12-05T17:27:44.537Z,28.55
2018-12-05T17:32:47.010Z,37.48
2018-12-05T17:37:49.689Z,32.35
2018-12-05T17:42:52.033Z,30.82
2018-12-05T17:47:54.411Z,34.58
2018-12-05T17:52:56.862Z,34.18
2018-12-05T17:57:59.866Z,32.40
2018-12-05T18:03:02.378Z,29.05
2018-12-05T18:08:04.845Z,29.75
2018-12-05T18:13:07.267Z,32.55
2018-12-05T18:18:09.676Z,30.37
2018-12-05T18:23:12.122Z,35.73
2018-12-05T18:28:14.508Z,29.32
2018-12-05T18:33:16.826Z,32.35
2018-12-05T18:38:19.670Z,31.87
2018-12-05T18:43:22.153Z,37.98
2018-12-05T18:48:24.534Z,33.25
2018-12-05T18:53:26.907Z,30.75
2018-12-05T18:58:29.367Z,27.93
2018-12-05T19:03:31.810Z,32.33
2018-12-05T19:08:34.685Z,24.82
2018-12-05T19:13:41.806Z,26.95
2018-12-05T19:18:44.321Z,33.78
2018-12-05T19:23:47.229Z,31.50
2018-12-05T19:28:50.325Z,31.73
2018-12-05T19:33:53.034Z,31.15
2018-12-05T19:38:55.566Z,30.43
2018-12-05T19:43:58.387Z,35.92
2018-12-05T19:49:00.707Z,25.97
2018-12-05T19:54:03.169Z,28.85
2018-12-05T19:59:05.553Z,30.25
2018-12-05T20:04:08.575Z,31.60
2018-12-05T20:09:11.062Z,29.52
2018-12-05T20:14:19.418Z,29.60
2018-12-05T20:19:21.772Z,30.10
2018-12-05T20:24:24.266Z,32.40
2018-12-05T20:29:26.661Z,29.63
2018-12-05T20:34:29.354Z,32.38
2018-12-05T20:39:31.767Z,26.17
2018-12-05T20:44:35.632Z,36.48
2018-12-05T20:49:38.164Z,28.65
2018-12-05T20:54:40.734Z,27.90
2018-12-05T20:59:43.691Z,34.08
2018-12-05T21:04:46.185Z,33.65
2018-12-05T21:09:48.587Z,27.75
2018-12-05T21:14:51.326Z,27.73
2018-12-05T21:19:53.743Z,26.87
2018-12-05T21:24:56.188Z,30.80
2018-12-05T21:29:58.599Z,27.65
2018-12-05T21:35:01.023Z,29.98
2018-12-05T21:40:04.039Z,33.70
2018-12-05T21:45:06.755Z,23.50
2018-12-05T21:50:09.523Z,28.90
2018-12-05T21:55:12.050Z,31.12
2018-12-05T22:00:14.761Z,27.85
2018-12-05T22:05:17.183Z,25.48
2018-12-05T22:10:19.567Z,33.88
2018-12-05T22:15:22.106Z,33.40
2018-12-05T22:20:24.695Z,28.73
2018-12-05T22:25:27.083Z,33.95
2018-12-05T22:30:29.471Z,28.00
2018-12-05T22:35:31.915Z,26.62
2018-12-05T22:40:34.336Z,29.92
2018-12-05T22:45:36.814Z,30.40
2018-12-05T22:50:39.352Z,25.95
2018-12-05T22:55:41.767Z,25.77
2018-12-05T23:00:49.642Z,31.57
2018-12-05T23:05:52.211Z,28.45
2018-12-05T23:10:54.722Z,28.57
2018-12-05T23:16:29.738Z,29.23
2018-12-05T23:21:32.262Z,30.48
2018-12-05T23:26:34.667Z,27.95
2018-12-05T23:31:37.161Z,27.80
2018-12-05T23:36:39.655Z,24.80
2018-12-05T23:41:42.183Z,30.75
2018-12-05T23:46:44.866Z,25.97
2018-12-05T23:51:47.490Z,36.40
2018-12-05T23:56:50.247Z,22.25
